Seacod — DDPW — position and weather

sailwx.info

Track history (hours):
 
Tides and Currents Weather Stations Pressure Air Temp Water Temp Dewpoint Dewpoint Depression Visibility Wind Speed Wind Dir Waves Ship Positions

Seacod

Last reported at 2016-May-30 15:19 UTC. Time now 2016-May-30 16:26 UTC.
Position N 54°42' E 012°31'.

Length 188 m; draft 10.9 m.

Type: Ship. MMSI: 218019000.

Date/timePositionNaut miles runAvg speedWind from/ knotsBaromVisibWave heightAir tempDewpointWater temp
2016-May-30 15:19N 54°42' E 012°31'2313.3
2016-May-30 13:33N 54°53' E 013°07'2014.0
2016-May-30 12:09N 54°59' E 013°39'813.9
2016-May-30 11:33N 55°02' E 013°53'1313.3
2016-May-30 10:33N 55°09' E 014°12'1414.1
2016-May-30 09:33N 55°21' E 014°27'1413.7
2016-May-30 08:33N 55°29' E 014°46'1514.0
2016-May-30 07:31N 55°37' E 015°08'31813.7
2016-May-29 08:21N 59°21' E 022°08'3113.7
2016-May-29 06:08N 59°35' E 023°02'814.2
2016-May-29 05:33N 59°37' E 023°17'1413.9
2016-May-29 04:33N 59°41' E 023°43'8414.0
2016-May-28 22:33N 60°00' E 026°26'1413.6
2016-May-28 21:32N 59°60' E 026°54'1913.1
2016-May-28 20:06N 60°07' E 027°28'813.9
2016-May-28 19:33N 60°11' E 027°42'1313.2
2016-May-28 18:33N 60°09' E 028°08'1312.9
2016-May-28 17:33N 60°09' E 028°34'10 9.4
2016-May-28 16:31N 60°17' E 028°46'3 0.1
2016-May-27 08:05N 60°19' E 028°44'5 5.4
2016-May-27 07:13N 60°15' E 028°48'812.1
2016-May-27 06:34N 60°08' E 028°40'9 8.8
2016-May-27 05:33N 60°02' E 028°29'0 0.0
2016-May-27 04:30N 60°02' E 028°29'0 0.0
2016-May-27 03:22N 60°02' E 028°29'0 0.0
2016-May-27 02:26N 60°02' E 028°29'0 0.0
2016-May-27 01:26N 60°02' E 028°29'0 0.0
2016-May-27 00:29N 60°02' E 028°29'0 0.0
2016-May-26 23:21N 60°02' E 028°29'0 0.0
2016-May-26 22:33N 60°02' E 028°29'0 0.0
2016-May-26 21:29N 60°02' E 028°29'0 0.0
2016-May-26 20:30N 60°02' E 028°29'0 0.0
2016-May-26 19:33N 60°02' E 028°29'0 0.0
2016-May-26 18:33N 60°02' E 028°29'0 0.0
2016-May-26 17:26N 60°02' E 028°29'0 0.0
2016-May-26 16:33N 60°02' E 028°29'0 0.0
2016-May-26 15:33N 60°02' E 028°29'0 0.0
2016-May-26 14:30N 60°02' E 028°29'0 0.1
2016-May-26 13:25N 60°02' E 028°29'0 0.0
2016-May-26 12:33N 60°02' E 028°29'0 0.0
2016-May-26 11:32N 60°02' E 028°29'0 0.0
2016-May-26 10:31N 60°02' E 028°29'0 0.0
2016-May-26 09:31N 60°02' E 028°28'0 0.1
2016-May-26 08:25N 60°02' E 028°28'0 0.1
2016-May-26 07:33N 60°02' E 028°28'0 0.1
2016-May-26 06:33N 60°02' E 028°28'9 9.4
2016-May-26 05:33N 60°07' E 028°13'10 9.9
2016-May-26 04:33N 60°10' E 027°54'13 9.4
2016-May-26 03:11N 60°05' E 027°30'710.1
2016-May-26 02:31N 60°02' E 027°18'1010.0
2016-May-26 01:33N 59°58' E 027°00'1010.2
2016-May-26 00:33N 59°59' E 026°40'8410.1
2016-May-25 16:18N 59°39' E 023°59'810.2
2016-May-25 15:33N 59°37' E 023°44'1010.1
2016-May-25 14:33N 59°34' E 023°26'33510.4
2016-May-24 06:22N 55°45' E 015°48'910.6
2016-May-24 05:30N 55°41' E 015°34'1010.6
2016-May-24 04:33N 55°36' E 015°19'1110.6
2016-May-24 03:33N 55°31' E 015°02'1110.6
2016-May-24 02:33N 55°25' E 014°46'1010.3
2016-May-24 01:33N 55°18' E 014°32'1110.6
2016-May-24 00:33N 55°11' E 014°20'1010.5
2016-May-23 23:33N 55°10' E 014°01'1110.6
2016-May-23 22:33N 55°11' E 013°43'1111.1
2016-May-23 21:33N 55°13' E 013°24'1111.0
2016-May-23 20:33N 55°14' E 013°05'1010.1
2016-May-23 19:33N 55°16' E 012°47'8 8.1
2016-May-23 18:33N 55°23' E 012°39'1110.6
2016-May-23 17:34N 55°33' E 012°42'1211.8
2016-May-23 16:33N 55°45' E 012°41'1413.5
2016-May-23 15:33N 55°58' E 012°40'1212.3
2016-May-23 14:34N 56°08' E 012°28'1414.0
2016-May-23 13:33N 56°16' E 012°07'1413.8
2016-May-23 12:33N 56°29' E 011°59'1414.4
2016-May-23 11:34N 56°43' E 011°53'1414.3
2016-May-23 10:33N 56°57' E 011°44'1414.0
2016-May-23 09:33N 57°10' E 011°35'1414.0
2016-May-23 08:33N 57°23' E 011°27'1413.7
2016-May-23 07:34N 57°34' E 011°11'1413.7
2016-May-23 06:32N 57°44' E 010°52'1313.6
2016-May-23 05:33N 57°49' E 010°29'27513.5
2016-May-22 09:09N 54°18' E 005°14'1014.2
2016-May-22 08:29N 54°09' E 005°10'1314.4
2016-May-22 07:33N 53°56' E 005°03'1514.6
2016-May-22 06:33N 53°42' E 004°54'3215.3
2016-May-22 04:29N 53°13' E 004°32'1615.8
2016-May-22 03:28N 52°59' E 004°20'1415.5
2016-May-22 02:34N 52°47' E 004°09'1915.0
2016-May-22 01:17N 52°33' E 003°48'1114.5
2016-May-22 00:33N 52°25' E 003°35'5313.2
2016-May-21 20:29N 51°46' E 002°37'1112.0
2016-May-21 19:33N 51°37' E 002°25'1212.1
2016-May-21 18:33N 51°28' E 002°13'1212.6
2016-May-21 17:34N 51°16' E 002°06'1313.0
2016-May-21 16:34N 51°09' E 001°49'1413.6
2016-May-21 15:33N 50°59' E 001°34'5513.1
2016-May-21 11:23N 50°24' E 000°27'1214.3
2016-May-21 10:33N 50°21' E 000°09'1515.1
2016-May-21 09:32N 50°18' W 000°15'9815.5
2016-May-21 03:13N 49°51' W 002°42'912.9
2016-May-21 02:31N 49°48' W 002°55'1512.6
2016-May-21 01:17N 49°40' W 003°16'8712.9
2016-May-20 18:32N 48°56' W 005°11'  
Track history (hours):
 
Tides and Currents Weather Stations Pressure Air Temp Water Temp Dewpoint Dewpoint Depression Visibility Wind Speed Wind Dir Waves Ship Positions

Seacod

Last reported at 2016-May-30 15:19 UTC. Time now 2016-May-30 16:26 UTC.
Position N 54°42' E 012°31'.

Length 188 m; draft 10.9 m.

Type: Ship. MMSI: 218019000.

Date/timePositionNaut miles runAvg speedWind from/ knotsBaromVisibWave heightAir tempDewpointWater temp
2016-May-30 15:19N 54°42' E 012°31'2313.3
2016-May-30 13:33N 54°53' E 013°07'2014.0
2016-May-30 12:09N 54°59' E 013°39'813.9
2016-May-30 11:33N 55°02' E 013°53'1313.3
2016-May-30 10:33N 55°09' E 014°12'1414.1
2016-May-30 09:33N 55°21' E 014°27'1413.7
2016-May-30 08:33N 55°29' E 014°46'1514.0
2016-May-30 07:31N 55°37' E 015°08'31813.7
2016-May-29 08:21N 59°21' E 022°08'3113.7
2016-May-29 06:08N 59°35' E 023°02'814.2
2016-May-29 05:33N 59°37' E 023°17'1413.9
2016-May-29 04:33N 59°41' E 023°43'8414.0
2016-May-28 22:33N 60°00' E 026°26'1413.6
2016-May-28 21:32N 59°60' E 026°54'1913.1
2016-May-28 20:06N 60°07' E 027°28'813.9
2016-May-28 19:33N 60°11' E 027°42'1313.2
2016-May-28 18:33N 60°09' E 028°08'1312.9
2016-May-28 17:33N 60°09' E 028°34'10 9.4
2016-May-28 16:31N 60°17' E 028°46'3 0.1
2016-May-27 08:05N 60°19' E 028°44'5 5.4
2016-May-27 07:13N 60°15' E 028°48'812.1
2016-May-27 06:34N 60°08' E 028°40'9 8.8
2016-May-27 05:33N 60°02' E 028°29'0 0.0
2016-May-27 04:30N 60°02' E 028°29'0 0.0
2016-May-27 03:22N 60°02' E 028°29'0 0.0
2016-May-27 02:26N 60°02' E 028°29'0 0.0
2016-May-27 01:26N 60°02' E 028°29'0 0.0
2016-May-27 00:29N 60°02' E 028°29'0 0.0
2016-May-26 23:21N 60°02' E 028°29'0 0.0
2016-May-26 22:33N 60°02' E 028°29'0 0.0
2016-May-26 21:29N 60°02' E 028°29'0 0.0
2016-May-26 20:30N 60°02' E 028°29'0 0.0
2016-May-26 19:33N 60°02' E 028°29'0 0.0
2016-May-26 18:33N 60°02' E 028°29'0 0.0
2016-May-26 17:26N 60°02' E 028°29'0 0.0
2016-May-26 16:33N 60°02' E 028°29'0 0.0
2016-May-26 15:33N 60°02' E 028°29'0 0.0
2016-May-26 14:30N 60°02' E 028°29'0 0.1
2016-May-26 13:25N 60°02' E 028°29'0 0.0
2016-May-26 12:33N 60°02' E 028°29'0 0.0
2016-May-26 11:32N 60°02' E 028°29'0 0.0
2016-May-26 10:31N 60°02' E 028°29'0 0.0
2016-May-26 09:31N 60°02' E 028°28'0 0.1
2016-May-26 08:25N 60°02' E 028°28'0 0.1
2016-May-26 07:33N 60°02' E 028°28'0 0.1
2016-May-26 06:33N 60°02' E 028°28'9 9.4
2016-May-26 05:33N 60°07' E 028°13'10 9.9
2016-May-26 04:33N 60°10' E 027°54'13 9.4
2016-May-26 03:11N 60°05' E 027°30'710.1
2016-May-26 02:31N 60°02' E 027°18'1010.0
2016-May-26 01:33N 59°58' E 027°00'1010.2
2016-May-26 00:33N 59°59' E 026°40'8410.1
2016-May-25 16:18N 59°39' E 023°59'810.2
2016-May-25 15:33N 59°37' E 023°44'1010.1
2016-May-25 14:33N 59°34' E 023°26'33510.4
2016-May-24 06:22N 55°45' E 015°48'910.6
2016-May-24 05:30N 55°41' E 015°34'1010.6
2016-May-24 04:33N 55°36' E 015°19'1110.6
2016-May-24 03:33N 55°31' E 015°02'1110.6
2016-May-24 02:33N 55°25' E 014°46'1010.3
2016-May-24 01:33N 55°18' E 014°32'1110.6
2016-May-24 00:33N 55°11' E 014°20'1010.5
2016-May-23 23:33N 55°10' E 014°01'1110.6
2016-May-23 22:33N 55°11' E 013°43'1111.1
2016-May-23 21:33N 55°13' E 013°24'1111.0
2016-May-23 20:33N 55°14' E 013°05'1010.1
2016-May-23 19:33N 55°16' E 012°47'8 8.1
2016-May-23 18:33N 55°23' E 012°39'1110.6
2016-May-23 17:34N 55°33' E 012°42'1211.8
2016-May-23 16:33N 55°45' E 012°41'1413.5
2016-May-23 15:33N 55°58' E 012°40'1212.3
2016-May-23 14:34N 56°08' E 012°28'1414.0
2016-May-23 13:33N 56°16' E 012°07'1413.8
2016-May-23 12:33N 56°29' E 011°59'1414.4
2016-May-23 11:34N 56°43' E 011°53'1414.3
2016-May-23 10:33N 56°57' E 011°44'1414.0
2016-May-23 09:33N 57°10' E 011°35'1414.0
2016-May-23 08:33N 57°23' E 011°27'1413.7
2016-May-23 07:34N 57°34' E 011°11'1413.7
2016-May-23 06:32N 57°44' E 010°52'1313.6
2016-May-23 05:33N 57°49' E 010°29'27513.5
2016-May-22 09:09N 54°18' E 005°14'1014.2
2016-May-22 08:29N 54°09' E 005°10'1314.4
2016-May-22 07:33N 53°56' E 005°03'1514.6
2016-May-22 06:33N 53°42' E 004°54'3215.3
2016-May-22 04:29N 53°13' E 004°32'1615.8
2016-May-22 03:28N 52°59' E 004°20'1415.5
2016-May-22 02:34N 52°47' E 004°09'1915.0
2016-May-22 01:17N 52°33' E 003°48'1114.5
2016-May-22 00:33N 52°25' E 003°35'5313.2
2016-May-21 20:29N 51°46' E 002°37'1112.0
2016-May-21 19:33N 51°37' E 002°25'1212.1
2016-May-21 18:33N 51°28' E 002°13'1212.6
2016-May-21 17:34N 51°16' E 002°06'1313.0
2016-May-21 16:34N 51°09' E 001°49'1413.6
2016-May-21 15:33N 50°59' E 001°34'5513.1
2016-May-21 11:23N 50°24' E 000°27'1214.3
2016-May-21 10:33N 50°21' E 000°09'1515.1
2016-May-21 09:32N 50°18' W 000°15'9815.5
2016-May-21 03:13N 49°51' W 002°42'912.9
2016-May-21 02:31N 49°48' W 002°55'1512.6
2016-May-21 01:17N 49°40' W 003°16'8712.9
2016-May-20 18:32N 48°56' W 005°11'  

Dump ship's entire track history